Time;durP1;ratioP1;P1;durP2;ratioP2;P2;SDS_P1;SDS_P2;PMS_P1;PMS_P2;Temp;Humidity;BMP_temperature;BMP_pressure;BME280_temperature;BME280_humidity;BME280_pressure;Samples;Min_cycle;Max_cycle;Signal;HPM_P1;HPM_P2
2022/05/31 00:01:04;;;;;;;2.88;1.80;;;;;;;14.51;46.50;100255.94;4132984;28;20052;-67
2022/05/31 00:03:07;;;;;;;4.75;1.83;;;;;;;14.48;46.25;100253.34;4162911;28;20073;-67
2022/05/31 00:05:11;;;;;;;5.15;1.80;;;;;;;14.48;46.02;100254.25;4162628;28;20030;-67
2022/05/31 00:07:14;;;;;;;6.77;1.90;;;;;;;14.46;46.65;100262.97;4150529;28;20045;-66
2022/05/31 00:09:17;;;;;;;3.80;1.70;;;;;;;14.50;46.42;100251.63;4161971;28;20475;-67
2022/05/31 00:11:21;;;;;;;2.97;1.65;;;;;;;14.51;46.41;100255.94;4151308;28;20042;-67
2022/05/31 00:13:23;;;;;;;5.75;2.63;;;;;;;14.52;46.42;100249.00;4162007;28;20041;-67
2022/05/31 00:15:26;;;;;;;3.78;1.80;;;;;;;14.50;46.06;100246.38;4161617;28;20058;-66
2022/05/31 00:17:31;;;;;;;8.57;2.20;;;;;;;14.44;46.86;100241.16;4162278;28;20412;-67
2022/05/31 00:19:34;;;;;;;;;;;;;;;14.27;46.79;100247.34;4159280;28;20120;-67
2022/05/31 00:21:40;;;;;;;2.63;1.60;;;;;;;14.32;46.77;100253.44;4160593;28;19921;-66
2022/05/31 00:23:44;;;;;;;3.10;1.77;;;;;;;14.34;47.20;100255.16;4147609;28;20501;-67
2022/05/31 00:25:47;;;;;;;5.90;2.22;;;;;;;14.34;47.76;100248.22;4126610;28;20046;-67
2022/05/31 00:27:50;;;;;;;3.67;1.77;;;;;;;14.36;47.40;100253.44;4160814;28;20045;-67
2022/05/31 00:29:53;;;;;;;2.42;1.80;;;;;;;14.33;47.77;100249.06;4161274;28;20045;-67
2022/05/31 00:31:56;;;;;;;5.03;2.05;;;;;;;14.32;47.38;100247.31;4157514;28;20088;-67
2022/05/31 00:34:01;;;;;;;7.43;2.15;;;;;;;14.31;47.55;100249.09;4152366;28;20099;-67
2022/05/31 00:36:05;;;;;;;2.67;1.48;;;;;;;14.29;47.14;100248.22;4148579;28;20044;-66
2022/05/31 00:38:09;;;;;;;4.18;2.33;;;;;;;14.30;47.69;100249.94;4147167;28;20042;-66
2022/05/31 00:40:14;;;;;;;5.22;1.80;;;;;;;14.25;47.63;100254.34;4146565;28;20117;-66
2022/05/31 00:42:20;;;;;;;3.80;1.70;;;;;;;14.23;48.07;100253.47;4160547;28;20042;-66
2022/05/31 00:44:27;;;;;;;3.28;1.70;;;;;;;14.20;49.11;100253.47;4146271;28;20045;-66
2022/05/31 00:46:44;;;;;;;4.30;1.90;;;;;;;14.17;49.61;100250.88;4146005;28;20057;-66
2022/05/31 00:48:53;;;;;;;2.35;1.73;;;;;;;14.15;49.64;100260.50;4154928;28;20042;-66
2022/05/31 00:51:03;;;;;;;4.10;1.90;;;;;;;14.12;49.01;100257.88;4164701;28;20046;-66
2022/05/31 00:53:10;;;;;;;3.92;1.63;;;;;;;14.06;48.95;100252.66;4142259;28;20058;-66
2022/05/31 00:55:16;;;;;;;2.75;1.45;;;;;;;13.97;48.84;100248.31;4146776;28;20038;-66
2022/05/31 00:57:20;;;;;;;3.97;2.03;;;;;;;13.96;49.01;100246.63;4164010;28;20037;-66
2022/05/31 00:59:29;;;;;;;3.25;1.98;;;;;;;13.89;48.93;100253.59;4148189;28;20110;-66
2022/05/31 01:01:35;;;;;;;3.58;1.90;;;;;;;13.84;49.38;100257.09;4164368;28;20041;-66
2022/05/31 01:03:42;;;;;;;3.63;1.73;;;;;;;13.76;49.31;100252.75;4135176;28;20493;-66
2022/05/31 01:05:45;;;;;;;2.53;1.77;;;;;;;13.74;49.63;100249.28;4166367;28;20033;-66
2022/05/31 01:07:50;;;;;;;5.25;2.25;;;;;;;13.73;49.76;100254.50;4154197;28;20045;-66
2022/05/31 01:09:53;;;;;;;3.80;2.05;;;;;;;13.69;50.13;100258.00;4154916;28;20038;-66
2022/05/31 01:12:15;;;;;;;4.82;2.70;;;;;;;13.69;50.40;100260.59;4161167;28;20042;-66
2022/05/31 01:14:38;;;;;;;8.55;2.42;;;;;;;13.74;50.18;100261.44;4145448;28;20488;-66
2022/05/31 01:16:56;;;;;;;4.40;2.28;;;;;;;13.79;50.20;100262.31;4150482;28;20500;-66
2022/05/31 01:21:57;;;;;;;7.35;3.30;;;;;;;13.81;50.04;100273.63;4148101;28;20153;-66
2022/05/31 01:24:22;;;;;;;5.80;2.40;;;;;;;13.78;50.13;100265.81;4148459;28;20061;-66
2022/05/31 01:26:30;;;;;;;5.50;2.30;;;;;;;13.82;49.50;100266.69;4152587;28;20048;-66
2022/05/31 01:28:44;;;;;;;6.75;2.60;;;;;;;13.81;49.92;100263.19;4153716;28;20034;-66
2022/05/31 01:30:55;;;;;;;3.78;2.08;;;;;;;13.76;49.98;100262.34;4150177;28;20524;-66
2022/05/31 01:33:04;;;;;;;6.25;2.47;;;;;;;13.74;50.51;100266.69;4144456;28;20194;-66
2022/05/31 01:35:14;;;;;;;4.55;1.80;;;;;;;13.71;50.98;100262.34;4135159;28;20119;-67
2022/05/31 01:37:21;;;;;;;4.43;1.80;;;;;;;13.66;51.29;100271.91;4149805;28;20053;-66
2022/05/31 01:39:33;;;;;;;5.68;2.38;;;;;;;13.55;51.50;100263.22;4130431;28;20050;-66
2022/05/31 01:41:42;;;;;;;6.00;2.42;;;;;;;13.49;51.38;100261.50;4143698;28;20046;-66
2022/05/31 01:43:46;;;;;;;5.68;2.38;;;;;;;13.46;51.40;100264.09;4132302;28;20085;-66
2022/05/31 01:45:56;;;;;;;7.53;2.70;;;;;;;13.50;51.51;100268.47;4147022;28;20049;-67
2022/05/31 01:48:03;;;;;;;3.95;2.08;;;;;;;13.49;51.93;100258.91;4147474;28;20030;-66
2022/05/31 01:50:10;;;;;;;5.15;3.08;;;;;;;13.50;52.13;100255.41;4152015;28;20416;-67
2022/05/31 01:52:14;;;;;;;2.78;1.95;;;;;;;13.48;52.47;100258.88;4131912;28;20050;-67
2022/05/31 01:54:20;;;;;;;5.38;2.33;;;;;;;13.41;52.33;100255.41;4140763;28;20128;-67
2022/05/31 01:56:23;;;;;;;8.45;2.95;;;;;;;13.36;52.52;100260.66;4131998;28;20523;-67
2022/05/31 01:58:33;;;;;;;6.18;2.60;;;;;;;13.42;52.06;100257.16;4147032;28;20137;-66
2022/05/31 02:00:36;;;;;;;5.75;2.28;;;;;;;13.35;52.77;100250.22;4148230;28;20041;-66
2022/05/31 02:02:39;;;;;;;5.68;2.45;;;;;;;13.37;52.12;100246.69;4129830;28;20049;-66
2022/05/31 02:04:43;;;;;;;6.03;2.10;;;;;;;13.36;52.24;100252.81;4137184;28;20457;-66
2022/05/31 02:06:46;;;;;;;7.43;2.20;;;;;;;13.34;53.13;100248.41;4157537;28;20041;-66
2022/05/31 02:08:49;;;;;;;4.72;2.20;;;;;;;13.28;53.56;100244.94;4135831;28;20465;-66
2022/05/31 02:10:54;;;;;;;5.38;2.13;;;;;;;13.21;53.76;100248.41;4162721;28;20037;-67
2022/05/31 02:12:58;;;;;;;7.68;2.83;;;;;;;13.18;53.25;100253.63;4142676;28;20542;-66
2022/05/31 02:15:33;;;;;;;4.65;2.80;;;;;;;13.14;52.99;100248.41;4151147;28;20041;-66
2022/05/31 02:17:59;;;;;;;5.32;2.47;;;;;;;13.09;53.65;100245.81;4162604;28;20073;-66
2022/05/31 02:20:28;;;;;;;4.25;2.50;;;;;;;13.09;53.14;100244.06;4124901;28;20582;-66
2022/05/31 02:22:31;;;;;;;5.55;2.40;;;;;;;13.14;53.61;100246.69;4146978;28;20046;-66
2022/05/31 02:24:35;;;;;;;5.65;2.05;;;;;;;13.20;53.25;100246.69;4127151;28;20146;-66
2022/05/31 02:26:41;;;;;;;7.03;2.73;;;;;;;13.22;52.85;100244.94;4138297;28;20556;-67
2022/05/31 02:28:43;;;;;;;5.80;2.90;;;;;;;13.23;53.53;100246.69;4123860;28;20333;-66
2022/05/31 02:30:46;;;;;;;4.53;2.38;;;;;;;13.20;53.34;100240.59;4161935;28;20408;-66
2022/05/31 02:32:49;;;;;;;4.55;2.92;;;;;;;13.16;53.68;100237.13;4161737;28;20512;-66
2022/05/31 02:34:53;;;;;;;5.63;2.72;;;;;;;13.18;53.59;100237.97;4130272;28;20034;-66
2022/05/31 02:36:57;;;;;;;6.05;3.38;;;;;;;13.16;53.57;100237.13;4142679;28;20229;-66
2022/05/31 02:39:00;;;;;;;7.22;2.90;;;;;;;13.07;53.99;100231.91;4150490;28;20125;-66
2022/05/31 02:41:11;;;;;;;3.53;2.75;;;;;;;13.03;54.17;100225.78;4145668;28;20080;-66
2022/05/31 02:43:15;;;;;;;5.53;3.05;;;;;;;13.04;54.00;100226.66;4132883;28;20612;-66
2022/05/31 02:45:18;;;;;;;7.65;3.00;;;;;;;13.00;54.41;100224.94;4161933;28;20044;-66
2022/05/31 02:47:21;;;;;;;6.60;3.25;;;;;;;12.99;54.36;100224.06;4145001;28;20056;-66
2022/05/31 02:49:24;;;;;;;5.88;3.20;;;;;;;12.96;54.83;100225.81;4162627;28;20099;-66
2022/05/31 02:51:29;;;;;;;9.13;3.17;;;;;;;12.95;54.62;100218.84;4141965;28;20030;-66
2022/05/31 02:53:32;;;;;;;3.70;2.67;;;;;;;12.94;54.83;100223.19;4147731;28;20073;-66
2022/05/31 02:55:36;;;;;;;4.68;2.70;;;;;;;12.86;55.34;100225.78;4128744;28;20076;-66
2022/05/31 02:57:58;;;;;;;5.72;2.88;;;;;;;12.78;55.59;100227.53;4158345;28;20064;-66
2022/05/31 03:00:21;;;;;;;6.70;3.05;;;;;;;12.78;55.41;100217.09;4163586;28;20038;-66
2022/05/31 03:02:50;;;;;;;5.45;3.00;;;;;;;12.75;55.76;100227.53;4162270;28;20055;-66
2022/05/31 03:05:11;;;;;;;6.97;3.60;;;;;;;12.77;55.40;100227.53;4162118;28;20045;-66
2022/05/31 03:07:36;;;;;;;;;;;;;;;12.52;55.66;100233.56;4151379;28;20465;-66
2022/05/31 03:09:45;;;;;;;5.97;2.90;;;;;;;12.57;56.37;100229.22;4138304;28;21128;-66
2022/05/31 03:11:52;;;;;;;5.85;3.00;;;;;;;12.69;55.97;100223.16;4116421;28;20055;-66
2022/05/31 03:14:01;;;;;;;4.93;3.10;;;;;;;12.68;55.51;100220.56;4151413;28;20060;-66
2022/05/31 03:16:05;;;;;;;6.53;3.28;;;;;;;12.72;55.44;100217.09;4144854;28;20038;-66
2022/05/31 03:18:10;;;;;;;;;;;;;;;12.61;56.05;100217.06;4143723;28;20492;-65
2022/05/31 03:20:18;;;;;;;4.05;2.95;;;;;;;12.69;55.84;100217.09;4156998;28;20015;-66
2022/05/31 03:22:33;;;;;;;7.88;3.22;;;;;;;12.70;55.72;100208.38;4133062;28;20054;-66
2022/05/31 03:24:39;;;;;;;4.57;2.90;;;;;;;12.70;55.74;100203.16;4139951;28;20174;-66
2022/05/31 03:26:43;;;;;;;7.32;3.67;;;;;;;12.72;56.08;100201.44;4131262;28;20038;-66
2022/05/31 03:28:46;;;;;;;5.63;3.05;;;;;;;12.73;56.04;100200.56;4156916;28;20141;-66
2022/05/31 03:30:49;;;;;;;7.38;3.80;;;;;;;12.72;56.07;100199.69;4146483;28;20048;-66
2022/05/31 03:32:59;;;;;;;6.18;3.63;;;;;;;12.73;56.01;100200.56;4144498;28;20114;-66
2022/05/31 03:35:02;;;;;;;5.82;3.25;;;;;;;12.64;55.27;100204.00;4147107;28;20044;-66
2022/05/31 03:37:05;;;;;;;7.10;3.60;;;;;;;12.65;55.55;100199.69;4128041;28;20034;-66
2022/05/31 03:39:08;;;;;;;5.05;3.20;;;;;;;12.61;55.42;100197.94;4137854;28;20104;-66
2022/05/31 03:41:13;;;;;;;10.23;3.45;;;;;;;12.54;55.13;100199.66;4141315;28;20371;-66
2022/05/31 03:43:19;;;;;;;9.02;3.55;;;;;;;12.55;55.53;100204.88;4140128;28;20488;-66
2022/05/31 03:45:44;;;;;;;10.50;3.50;;;;;;;12.55;54.97;100207.47;4156032;28;20045;-67
2022/05/31 03:48:11;;;;;;;6.95;3.60;;;;;;;12.51;55.44;100199.66;4144890;28;20073;-66
2022/05/31 03:50:24;;;;;;;6.03;2.88;;;;;;;12.45;55.05;100204.84;4148552;28;20052;-66
2022/05/31 03:52:28;;;;;;;9.00;3.30;;;;;;;12.49;55.58;100204.88;4145280;28;20061;-66
2022/05/31 03:54:31;;;;;;;4.85;2.80;;;;;;;12.47;55.26;100204.00;4146491;28;20703;-66
2022/05/31 03:56:54;;;;;;;3.50;2.70;;;;;;;12.49;55.33;100198.78;4157026;28;20060;-66
2022/05/31 03:58:57;;;;;;;11.02;3.60;;;;;;;12.54;55.62;100203.16;4121657;28;20058;-68
2022/05/31 04:01:02;;;;;;;8.80;3.65;;;;;;;12.69;55.11;100204.91;4153918;28;20056;-66
2022/05/31 04:03:05;;;;;;;7.68;3.03;;;;;;;12.67;54.99;100197.94;4118542;28;20051;-65
2022/05/31 04:05:10;;;;;;;6.05;2.92;;;;;;;12.67;55.15;100200.56;4144677;28;20462;-66
2022/05/31 04:07:12;;;;;;;9.38;3.00;;;;;;;12.71;54.78;100190.13;4143829;28;20072;-65
2022/05/31 04:09:15;;;;;;;10.02;3.85;;;;;;;12.66;54.77;100197.09;4148959;28;20041;-64
2022/05/31 04:11:18;;;;;;;6.80;3.50;;;;;;;12.65;55.58;100189.25;4148082;28;20042;-64
2022/05/31 04:13:22;;;;;;;4.93;3.08;;;;;;;12.71;55.42;100187.50;4149495;28;20129;-64
2022/05/31 04:15:43;;;;;;;6.53;3.50;;;;;;;12.79;54.36;100181.44;4157915;28;20096;-64
2022/05/31 04:17:46;;;;;;;11.18;3.60;;;;;;;12.67;55.07;100180.53;4162232;28;20029;-64
2022/05/31 04:19:50;;;;;;;6.15;3.10;;;;;;;12.65;55.17;100184.03;4143225;28;20037;-65
2022/05/31 04:21:54;;;;;;;6.35;3.00;;;;;;;12.60;55.38;100188.38;4161663;28;20037;-65
2022/05/31 04:23:59;;;;;;;5.70;2.78;;;;;;;12.57;55.09;100192.72;4147030;28;20420;-66
2022/05/31 04:26:15;;;;;;;6.53;3.45;;;;;;;12.65;55.60;100189.25;4164065;28;20323;-66
2022/05/31 04:28:36;;;;;;;8.32;3.33;;;;;;;12.78;54.45;100198.84;4164706;28;20163;-66
2022/05/31 04:31:18;;;;;;;7.25;3.72;;;;;;;12.71;55.32;100194.47;4120325;28;20057;-65
2022/05/31 04:33:47;;;;;;;4.60;2.78;;;;;;;12.75;54.77;100193.63;4152792;28;20042;-66
2022/05/31 04:35:58;;;;;;;4.53;2.83;;;;;;;12.80;54.80;100194.47;4130846;28;20482;-65
2022/05/31 04:38:02;;;;;;;7.47;3.28;;;;;;;12.84;55.49;100193.59;4149281;28;20129;-66
2022/05/31 04:40:29;;;;;;;4.85;2.85;;;;;;;12.92;54.65;100189.28;4162906;28;20119;-66
2022/05/31 04:42:55;;;;;;;4.32;2.72;;;;;;;12.96;54.23;100194.50;4159559;28;20048;-66
2022/05/31 04:45:15;;;;;;;5.82;3.75;;;;;;;13.01;54.47;100193.63;4132473;28;20149;-66
2022/05/31 04:47:18;;;;;;;7.38;3.45;;;;;;;13.04;54.40;100187.50;4143000;28;20049;-66
2022/05/31 04:49:26;;;;;;;7.70;3.08;;;;;;;13.16;54.19;100187.53;4149373;28;20042;-66
2022/05/31 04:51:32;;;;;;;4.75;2.78;;;;;;;13.23;53.91;100191.88;4148244;28;20046;-66
2022/05/31 04:53:45;;;;;;;4.65;3.05;;;;;;;13.32;54.01;100192.75;4125185;28;20043;-66
2022/05/31 04:56:03;;;;;;;4.60;2.95;;;;;;;13.20;53.38;100185.75;4148847;28;20378;-66
2022/05/31 04:58:07;;;;;;;9.48;3.67;;;;;;;13.23;53.79;100186.66;4133240;28;20081;-66
2022/05/31 05:00:14;;;;;;;5.15;2.60;;;;;;;13.28;53.81;100187.50;4147722;28;20057;-66
2022/05/31 05:02:35;;;;;;;8.23;3.35;;;;;;;13.24;53.83;100185.78;4141534;28;20033;-66
2022/05/31 05:04:42;;;;;;;5.13;3.00;;;;;;;13.25;53.97;100184.03;4149220;28;20511;-66
2022/05/31 05:06:51;;;;;;;6.82;3.10;;;;;;;13.43;53.43;100176.22;4148710;28;20046;-66
2022/05/31 05:08:58;;;;;;;8.50;3.85;;;;;;;13.39;53.02;100168.38;4149171;28;20044;-66
2022/05/31 05:11:02;;;;;;;7.47;3.70;;;;;;;13.30;54.12;100173.59;4146909;28;20034;-66
2022/05/31 05:13:10;;;;;;;7.57;3.55;;;;;;;13.27;54.01;100180.56;4140963;28;20038;-66
2022/05/31 05:15:39;;;;;;;6.57;3.38;;;;;;;13.38;54.25;100184.94;4124710;28;20070;-66
2022/05/31 05:17:43;;;;;;;6.68;3.65;;;;;;;13.38;54.39;100179.69;4116580;28;20498;-66
2022/05/31 05:19:46;;;;;;;7.50;4.20;;;;;;;13.47;53.98;100186.66;4132803;28;20121;-66
2022/05/31 05:21:49;;;;;;;8.48;3.80;;;;;;;13.56;53.85;100182.25;4145368;28;20042;-66
2022/05/31 05:23:52;;;;;;;12.68;4.38;;;;;;;13.60;54.13;100188.34;4148998;28;20090;-66
2022/05/31 05:26:06;;;;;;;10.38;4.25;;;;;;;13.57;54.00;100191.84;4147507;28;20464;-66
2022/05/31 05:30:53;;;;;;;6.55;2.60;;;;;;;13.52;54.24;100193.59;4136778;28;20135;-66
2022/05/31 05:32:56;;;;;;;5.18;2.30;;;;;;;13.58;54.40;100198.81;4145561;28;20065;-66
2022/05/31 05:35:05;;;;;;;3.30;2.22;;;;;;;13.65;54.29;100191.81;4148631;28;20057;-66
2022/05/31 05:37:08;;;;;;;6.13;2.80;;;;;;;13.72;54.03;100192.66;4132600;28;20129;-66
2022/05/31 05:39:11;;;;;;;5.75;3.00;;;;;;;13.78;54.30;100193.53;4129787;28;20100;-66
2022/05/31 05:41:17;;;;;;;5.68;3.00;;;;;;;13.81;54.36;100187.41;4166179;28;20385;-67
2022/05/31 05:43:40;;;;;;;5.88;2.88;;;;;;;13.83;54.19;100188.28;4166078;28;20502;-67
2022/05/31 05:45:47;;;;;;;7.50;3.55;;;;;;;13.88;54.63;100181.28;4145054;28;20041;-67
2022/05/31 05:47:50;;;;;;;7.70;3.78;;;;;;;13.88;54.51;100183.91;4160176;28;20033;-67
2022/05/31 05:50:00;;;;;;;9.05;3.33;;;;;;;13.83;54.89;100182.16;4128306;28;20047;-66
2022/05/31 05:52:21;;;;;;;9.23;3.83;;;;;;;13.83;54.70;100183.06;4157684;28;20115;-67
2022/05/31 05:54:43;;;;;;;6.53;3.67;;;;;;;13.85;54.94;100183.91;4149518;28;20060;-66
2022/05/31 05:57:06;;;;;;;7.65;3.88;;;;;;;13.84;55.03;100187.38;4155021;28;20453;-67
2022/05/31 05:59:37;;;;;;;7.22;3.95;;;;;;;13.83;54.99;100183.06;4090410;29;20103;-66
2022/05/31 06:02:04;;;;;;;5.20;3.55;;;;;;;13.85;55.08;100186.53;4149463;28;20042;-67
2022/05/31 06:05:00;;;;;;;8.35;3.63;;;;;;;13.92;55.11;100196.09;4132144;28;20133;-66
2022/05/31 06:07:13;;;;;;;6.25;3.45;;;;;;;14.00;54.94;100192.56;4160220;28;20065;-66
2022/05/31 06:09:19;;;;;;;11.52;3.75;;;;;;;14.01;55.12;100194.31;4130495;28;20061;-67
2022/05/31 06:11:26;;;;;;;8.15;3.70;;;;;;;14.02;55.01;100196.94;4146603;28;20076;-69
2022/05/31 06:13:35;;;;;;;10.18;4.05;;;;;;;13.99;54.87;100201.28;4148233;28;20449;-69
2022/05/31 06:15:43;;;;;;;6.78;3.67;;;;;;;14.05;54.80;100206.50;4131820;28;20039;-73
2022/05/31 06:17:50;;;;;;;13.85;4.15;;;;;;;14.07;54.96;100199.50;4147876;28;20090;-72
2022/05/31 06:19:52;;;;;;;8.80;4.50;;;;;;;14.00;54.98;100201.28;4147111;28;20049;-67
2022/05/31 06:21:56;;;;;;;6.30;3.58;;;;;;;14.07;54.54;100209.97;4123376;28;20053;-67
2022/05/31 06:24:06;;;;;;;7.47;4.45;;;;;;;14.22;54.29;100209.03;4147021;28;20543;-67
2022/05/31 06:26:09;;;;;;;8.75;4.53;;;;;;;14.51;53.23;100201.00;4139098;28;20076;-66
2022/05/31 06:28:15;;;;;;;5.85;4.30;;;;;;;14.48;53.20;100204.53;4131461;28;20038;-67
2022/05/31 06:30:19;;;;;;;8.13;3.60;;;;;;;14.25;54.24;100211.63;4156422;28;20037;-67
2022/05/31 06:32:23;;;;;;;9.75;4.47;;;;;;;14.23;54.24;100209.00;4147753;28;20045;-67
2022/05/31 06:34:31;;;;;;;11.73;3.28;;;;;;;14.28;54.64;100207.25;4131712;28;20039;-67
2022/05/31 06:37:02;;;;;;;12.10;4.38;;;;;;;14.60;53.36;100200.97;4149375;28;20069;-67
2022/05/31 06:39:05;;;;;;;10.80;3.80;;;;;;;14.50;54.15;100212.38;4144234;28;20030;-67
2022/05/31 06:41:08;;;;;;;6.00;3.17;;;;;;;14.58;53.68;100210.56;4147769;28;20124;-67
2022/05/31 06:43:38;;;;;;;14.98;4.45;;;;;;;14.73;53.46;100214.00;4147591;28;20041;-67
2022/05/31 06:46:14;;;;;;;7.40;4.07;;;;;;;14.68;53.54;100203.56;4146341;28;20108;-67
2022/05/31 06:48:47;;;;;;;8.15;4.43;;;;;;;15.03;52.30;100197.19;4156424;28;20063;-67
2022/05/31 06:51:13;;;;;;;7.95;3.83;;;;;;;14.88;52.83;100200.81;4164682;28;20053;-67
2022/05/31 06:59:00;;;;;;;6.07;3.83;;;;;;;15.07;53.09;100193.69;4094233;29;20081;-67
2022/05/31 07:01:04;;;;;;;7.65;4.00;;;;;;;15.21;52.21;100184.81;4094721;28;20058;-67
2022/05/31 07:03:08;;;;;;;9.38;4.05;;;;;;;15.31;51.29;100183.84;4164938;28;20163;-67
2022/05/31 07:05:14;;;;;;;7.05;3.83;;;;;;;15.33;51.77;100172.47;4163560;28;20393;-67
2022/05/31 07:07:17;;;;;;;6.72;3.45;;;;;;;15.45;50.75;100176.72;4138781;28;20042;-67
2022/05/31 07:09:26;;;;;;;11.65;4.43;;;;;;;15.53;51.72;100174.88;4164733;28;20037;-67
2022/05/31 07:11:30;;;;;;;7.88;3.78;;;;;;;15.55;51.27;100188.00;4147258;28;20080;-67
2022/05/31 07:14:02;;;;;;;8.98;4.40;;;;;;;15.64;50.32;100182.63;4150138;28;20049;-67
2022/05/31 07:16:05;;;;;;;10.18;4.25;;;;;;;15.69;50.71;100178.19;4156401;28;20034;-67
2022/05/31 07:18:52;;;;;;;;;;;;;;;15.76;48.44;100181.63;4098614;29;20074;-67
2022/05/31 07:21:01;;;;;;;10.07;4.15;;;;;;;15.80;48.70;100191.22;4127561;28;20392;-67
2022/05/31 07:23:05;;;;;;;7.00;4.82;;;;;;;16.01;47.79;100170.88;4130758;28;20054;-67
2022/05/31 07:25:12;;;;;;;8.43;3.78;;;;;;;15.93;46.53;100172.72;4144939;28;20580;-67
2022/05/31 07:27:25;;;;;;;8.55;3.50;;;;;;;15.80;47.18;100167.63;4135069;28;20100;-66
2022/05/31 07:29:34;;;;;;;7.80;3.60;;;;;;;15.93;46.52;100176.22;4138006;28;20111;-67
2022/05/31 07:31:38;;;;;;;9.95;2.95;;;;;;;16.19;43.78;100172.38;4145126;28;20073;-67
2022/05/31 07:34:02;;;;;;;4.80;2.38;;;;;;;16.09;44.04;100174.28;4139707;28;20056;-67
2022/05/31 07:36:07;;;;;;;11.90;3.63;;;;;;;15.99;45.24;100173.53;4146452;28;20062;-66
2022/05/31 07:38:23;;;;;;;5.50;2.70;;;;;;;15.96;46.08;100178.81;4129402;28;20610;-67
2022/05/31 07:40:26;;;;;;;7.40;3.53;;;;;;;16.21;45.55;100171.47;4145960;28;20044;-67
2022/05/31 07:42:29;;;;;;;11.68;3.38;;;;;;;16.26;45.17;100173.19;4146604;28;20297;-67
2022/05/31 07:44:32;;;;;;;9.85;3.28;;;;;;;16.31;45.03;100169.59;4164489;28;20037;-66
2022/05/31 07:46:35;;;;;;;7.50;3.30;;;;;;;16.25;46.13;100180.16;4130417;28;20366;-66
2022/05/31 07:48:39;;;;;;;3.78;2.42;;;;;;;16.16;46.54;100186.38;4146532;28;20088;-66
2022/05/31 07:51:03;;;;;;;5.57;2.72;;;;;;;16.20;47.99;100188.09;4145268;28;20045;-67
2022/05/31 07:53:25;;;;;;;5.45;3.20;;;;;;;16.28;48.62;100182.75;4146655;28;20132;-67
2022/05/31 07:55:28;;;;;;;8.38;3.50;;;;;;;16.48;47.69;100176.34;4164385;28;20045;-67
2022/05/31 08:00:40;;;;;;;6.82;3.05;;;;;;;16.28;46.93;100180.13;4157023;28;20124;-67
2022/05/31 08:02:43;;;;;;;5.35;2.63;;;;;;;16.33;48.03;100175.69;4146848;28;20100;-67
2022/05/31 08:04:46;;;;;;;5.88;3.05;;;;;;;16.42;47.67;100172.06;4163974;28;20045;-67
2022/05/31 08:06:51;;;;;;;3.72;2.40;;;;;;;16.50;47.96;100156.19;4163676;28;20041;-67
2022/05/31 08:08:54;;;;;;;6.90;3.22;;;;;;;16.64;47.40;100156.84;4159581;28;20532;-66
2022/05/31 08:10:57;;;;;;;7.47;3.15;;;;;;;16.72;46.44;100162.00;4141673;28;20497;-67
2022/05/31 08:13:00;;;;;;;6.18;3.22;;;;;;;16.71;46.97;100158.50;4146465;28;20064;-67
2022/05/31 08:15:04;;;;;;;6.10;2.90;;;;;;;16.83;47.40;100156.56;4130256;28;20046;-67
2022/05/31 08:17:09;;;;;;;10.57;3.67;;;;;;;16.88;47.11;100160.00;4143216;28;20081;-67
2022/05/31 08:19:19;;;;;;;7.72;2.72;;;;;;;17.02;48.01;100167.66;4146277;28;20137;-67
2022/05/31 08:21:27;;;;;;;5.80;2.60;;;;;;;17.16;48.14;100165.66;4163898;28;20475;-67
2022/05/31 08:23:32;;;;;;;9.55;3.10;;;;;;;17.21;46.74;100158.56;4164121;28;20041;-67
2022/05/31 08:25:38;;;;;;;10.18;3.25;;;;;;;17.27;45.43;100158.47;4164020;28;20049;-67
2022/05/31 08:27:41;;;;;;;12.77;3.55;;;;;;;17.34;45.41;100164.44;4159873;28;20048;-67
2022/05/31 08:29:44;;;;;;;10.00;3.13;;;;;;;17.40;45.79;100159.06;4157524;28;20037;-67
2022/05/31 08:31:47;;;;;;;8.10;3.63;;;;;;;17.45;45.67;100161.66;4163902;28;20041;-67
2022/05/31 08:33:52;;;;;;;4.95;2.75;;;;;;;17.47;45.37;100153.72;4143838;28;20516;-67
2022/05/31 08:35:55;;;;;;;7.05;2.95;;;;;;;17.65;45.11;100157.75;4163647;28;20040;-67
2022/05/31 08:38:06;;;;;;;9.88;2.90;;;;;;;17.75;44.74;100164.56;4145145;28;20533;-67
2022/05/31 08:40:12;;;;;;;7.97;3.33;;;;;;;17.83;44.30;100167.03;4162244;28;20037;-67
2022/05/31 08:42:19;;;;;;;8.02;2.88;;;;;;;17.86;44.09;100161.69;4145418;28;20042;-67
2022/05/31 08:44:34;;;;;;;8.00;2.80;;;;;;;17.94;44.10;100155.41;4130058;28;20121;-67
2022/05/31 08:46:59;;;;;;;14.02;2.88;;;;;;;17.99;44.02;100157.09;4163534;28;20149;-67
2022/05/31 08:49:15;;;;;;;4.80;2.45;;;;;;;18.00;43.57;100164.94;4136528;28;20045;-67
2022/05/31 08:53:44;;;;;;;6.75;1.90;;;;;;;17.90;43.26;100160.78;4163678;28;20041;-67
2022/05/31 08:58:18;;;;;;;6.72;2.15;;;;;;;17.97;43.20;100165.00;4145127;28;20092;-67
2022/05/31 09:00:25;;;;;;;4.93;2.00;;;;;;;18.05;43.05;100160.47;4163569;28;20496;-67
2022/05/31 09:02:33;;;;;;;5.32;1.73;;;;;;;18.09;43.31;100154.25;4163639;28;20052;-67
2022/05/31 09:04:59;;;;;;;5.82;2.03;;;;;;;18.22;43.10;100153.97;4163615;28;20128;-67
2022/05/31 09:07:07;;;;;;;4.10;2.05;;;;;;;18.21;43.11;100157.47;4157774;28;20080;-67
2022/05/31 09:09:14;;;;;;;4.07;2.00;;;;;;;18.24;43.11;100158.28;4145009;28;20520;-68
2022/05/31 09:11:22;;;;;;;4.07;1.70;;;;;;;18.10;42.14;100158.59;4149346;28;20069;-67
2022/05/31 09:13:31;;;;;;;3.60;1.80;;;;;;;18.00;42.28;100159.69;4166607;28;20045;-67
2022/05/31 09:15:40;;;;;;;6.50;1.90;;;;;;;18.12;42.53;100159.44;4165330;28;20108;-67
2022/05/31 09:17:54;;;;;;;5.03;2.05;;;;;;;18.30;41.82;100152.88;4159770;28;20120;-67
2022/05/31 09:20:02;;;;;;;4.95;1.77;;;;;;;18.18;42.12;100153.19;4149213;28;20603;-67
2022/05/31 09:22:07;;;;;;;5.50;2.17;;;;;;;18.36;42.40;100151.88;4166504;28;20053;-67
2022/05/31 09:24:11;;;;;;;;;;;;;;;18.36;43.21;100151.03;4165963;28;20634;-67
2022/05/31 09:26:36;;;;;;;3.20;1.90;;;;;;;18.48;42.58;100148.94;4157712;28;20144;-67
2022/05/31 09:28:48;;;;;;;3.72;1.90;;;;;;;18.59;41.71;100147.84;4132608;28;20149;-68
2022/05/31 09:30:52;;;;;;;3.90;1.90;;;;;;;18.52;42.16;100147.13;4149915;28;20400;-67
2022/05/31 09:33:06;;;;;;;6.28;2.40;;;;;;;18.62;41.84;100147.78;4149858;28;20049;-67
2022/05/31 09:35:32;;;;;;;9.48;2.28;;;;;;;18.63;42.32;100149.50;4154555;28;20042;-67
2022/05/31 09:37:54;;;;;;;8.45;2.65;;;;;;;18.63;41.67;100149.50;4158204;28;20401;-67
2022/05/31 09:40:15;;;;;;;4.88;2.20;;;;;;;18.68;42.03;100147.63;4148662;28;20485;-67
2022/05/31 09:42:25;;;;;;;3.58;2.00;;;;;;;18.63;41.94;100155.66;4147807;28;20108;-67
2022/05/31 09:44:37;;;;;;;4.22;2.00;;;;;;;18.63;42.51;100158.28;4166005;28;20576;-67
2022/05/31 09:46:47;;;;;;;6.38;2.03;;;;;;;18.77;42.00;100155.28;4149355;28;20042;-67
2022/05/31 09:48:52;;;;;;;5.25;1.90;;;;;;;18.74;42.42;100155.38;4149756;28;20092;-68
2022/05/31 09:50:59;;;;;;;5.05;1.90;;;;;;;18.72;42.62;100154.56;4149849;28;20045;-68
2022/05/31 09:57:05;;;;;;;4.00;2.13;;;;;;;18.96;42.16;100152.25;4153055;28;20038;-67
2022/05/31 09:58:24;;;;;;;6.75;2.63;;;;;;;19.05;42.08;100141.44;4146206;28;20060;-67
2022/05/31 10:01:07;;;;;;;10.00;2.22;;;;;;;19.16;43.15;100138.56;4165746;28;20049;-67
2022/05/31 10:03:11;;;;;;;5.07;1.85;;;;;;;19.27;42.95;100136.47;4131937;28;20050;-68
2022/05/31 10:05:16;;;;;;;;;;;;;;;19.42;41.12;100124.69;4141438;28;20038;-67
2022/05/31 10:07:33;;;;;;;6.50;2.20;;;;;;;19.56;41.87;100121.63;4146009;28;19935;-68
2022/05/31 10:09:38;;;;;;;5.10;2.17;;;;;;;19.67;41.74;100119.56;4149276;28;20050;-68
2022/05/31 10:11:48;;;;;;;6.78;2.25;;;;;;;19.94;40.02;100121.47;4149271;28;20495;-67
2022/05/31 10:13:58;;;;;;;7.80;2.95;;;;;;;19.83;40.14;100114.75;4149177;28;20048;-67
2022/05/31 10:16:10;;;;;;;5.07;1.95;;;;;;;19.77;40.31;100114.00;4136434;28;20117;-67
2022/05/31 10:18:23;;;;;;;2.90;1.75;;;;;;;19.82;40.96;100123.56;4165510;28;20045;-67
2022/05/31 10:20:27;;;;;;;4.70;1.92;;;;;;;19.98;40.30;100118.69;4146274;28;20132;-68
2022/05/31 10:22:30;;;;;;;2.97;1.80;;;;;;;20.11;40.05;100111.25;4157247;28;20045;-67
2022/05/31 10:24:53;;;;;;;4.80;2.15;;;;;;;20.29;39.82;100111.59;4144366;28;20562;-67
2022/05/31 10:27:24;;;;;;;7.82;2.22;;;;;;;20.33;39.06;100115.88;4163340;28;20094;-67